createdAt,value
2022-08-26T00:01:52.068Z,15.24
2022-08-26T00:04:04.259Z,15.21
2022-08-26T00:06:14.262Z,15.19
2022-08-26T00:08:30.541Z,15.17
2022-08-26T00:10:43.636Z,15.14
2022-08-26T00:12:49.309Z,15.06
2022-08-26T00:14:57.439Z,15.02
2022-08-26T00:17:05.967Z,14.98
2022-08-26T00:19:17.445Z,14.97
2022-08-26T00:21:25.352Z,14.97
2022-08-26T00:23:34.753Z,14.96
2022-08-26T00:25:42.456Z,14.95
2022-08-26T00:27:48.703Z,14.91
2022-08-26T00:29:59.348Z,14.91
2022-08-26T00:32:08.803Z,14.87
2022-08-26T00:34:21.539Z,14.81
2022-08-26T00:36:29.645Z,14.76
2022-08-26T00:38:38.344Z,14.74
2022-08-26T00:40:51.487Z,14.75
2022-08-26T00:42:58.226Z,14.81
2022-08-26T00:45:12.777Z,14.8
2022-08-26T00:47:21.119Z,14.76
2022-08-26T00:49:36.365Z,14.76
2022-08-26T00:51:48.337Z,14.75
2022-08-26T00:53:58.578Z,14.72
2022-08-26T00:56:13.340Z,14.67
2022-08-26T00:58:21.785Z,14.63
2022-08-26T01:00:29.640Z,14.62
2022-08-26T01:02:38.775Z,14.61
2022-08-26T01:04:54.434Z,14.57
2022-08-26T01:07:07.602Z,14.54
2022-08-26T01:09:17.989Z,14.55
2022-08-26T01:11:26.079Z,14.52
2022-08-26T01:13:37.647Z,14.56
2022-08-26T01:15:44.350Z,14.55
2022-08-26T01:17:53.882Z,14.53
2022-08-26T01:20:00.195Z,14.47
2022-08-26T01:22:08.413Z,14.41
2022-08-26T01:24:15.481Z,14.34
2022-08-26T01:26:24.039Z,14.35
2022-08-26T01:28:34.859Z,14.3
2022-08-26T01:30:44.156Z,14.24
2022-08-26T01:32:56.154Z,14.22
2022-08-26T01:35:04.535Z,14.23
2022-08-26T01:37:13.711Z,14.24
2022-08-26T01:39:23.314Z,14.24
2022-08-26T01:41:33.053Z,14.25
2022-08-26T01:43:39.197Z,14.2
2022-08-26T01:45:45.140Z,14.19
2022-08-26T01:47:57.697Z,14.12
2022-08-26T01:50:05.094Z,14.09
2022-08-26T01:52:31.453Z,14.08
2022-08-26T01:54:37.409Z,14.09
2022-08-26T01:56:53.856Z,14.05
2022-08-26T01:59:00.949Z,14.03
2022-08-26T02:01:11.749Z,14
2022-08-26T02:03:17.956Z,14.01
2022-08-26T02:05:23.950Z,13.96
2022-08-26T02:07:33.645Z,13.94
2022-08-26T02:09:44.623Z,13.95
2022-08-26T02:11:55.221Z,13.92
2022-08-26T02:14:03.973Z,13.93
2022-08-26T02:16:14.972Z,13.92
2022-08-26T02:18:21.153Z,13.93
2022-08-26T02:20:29.407Z,13.87
2022-08-26T02:22:47.074Z,13.87
2022-08-26T02:24:56.086Z,13.82
2022-08-26T02:27:04.470Z,13.74
2022-08-26T02:29:17.366Z,13.77
2022-08-26T02:31:28.235Z,13.77
2022-08-26T02:33:37.130Z,13.74
2022-08-26T02:35:48.991Z,13.73
2022-08-26T02:37:56.844Z,13.74
2022-08-26T02:40:12.497Z,13.75
2022-08-26T02:42:21.005Z,13.76
2022-08-26T02:44:30.383Z,13.72
2022-08-26T02:46:38.201Z,13.71
2022-08-26T02:48:52.528Z,13.68
2022-08-26T02:51:05.350Z,13.65
2022-08-26T02:53:11.137Z,13.62
2022-08-26T02:55:25.417Z,13.61
2022-08-26T02:57:37.183Z,13.54
2022-08-26T02:59:44.019Z,13.52
2022-08-26T03:01:50.240Z,13.48
2022-08-26T03:03:59.616Z,13.45
2022-08-26T03:06:05.218Z,13.44
2022-08-26T03:08:12.797Z,13.44
2022-08-26T03:10:21.906Z,13.42
2022-08-26T03:12:42.767Z,13.43
2022-08-26T03:14:55.707Z,13.44
2022-08-26T03:17:03.502Z,13.43
2022-08-26T03:19:13.362Z,13.42
2022-08-26T03:21:24.611Z,13.43
2022-08-26T03:23:33.413Z,13.42
2022-08-26T03:25:40.965Z,13.4
2022-08-26T03:27:49.921Z,13.39
2022-08-26T03:30:06.024Z,13.37
2022-08-26T03:32:17.154Z,13.36
2022-08-26T03:34:23.227Z,13.36
2022-08-26T03:36:31.171Z,13.35
2022-08-26T03:38:42.099Z,13.34
2022-08-26T03:40:50.808Z,13.34
2022-08-26T03:43:00.656Z,13.32
2022-08-26T03:45:12.036Z,13.34
2022-08-26T03:47:20.229Z,13.37
2022-08-26T03:49:26.454Z,13.38
2022-08-26T03:51:38.773Z,13.4
2022-08-26T03:53:50.952Z,13.42
2022-08-26T03:55:56.458Z,13.41
2022-08-26T03:58:08.613Z,13.37
2022-08-26T04:00:18.331Z,13.39
2022-08-26T04:02:24.468Z,13.4
2022-08-26T04:04:37.442Z,13.4
2022-08-26T04:06:46.473Z,13.4
2022-08-26T04:08:53.608Z,13.4
2022-08-26T04:10:59.499Z,13.42
2022-08-26T04:13:05.828Z,13.42
2022-08-26T04:15:12.204Z,13.47
2022-08-26T04:17:25.772Z,13.48
2022-08-26T04:19:34.289Z,13.49
2022-08-26T04:21:40.153Z,13.54
2022-08-26T04:23:47.368Z,13.54
2022-08-26T04:25:55.828Z,13.58
2022-08-26T04:28:02.460Z,13.63
2022-08-26T04:30:11.399Z,13.7
2022-08-26T04:32:21.571Z,13.75
2022-08-26T04:34:28.618Z,13.79
2022-08-26T04:36:39.083Z,13.85
2022-08-26T04:38:47.187Z,13.92
2022-08-26T04:40:55.933Z,13.98
2022-08-26T04:43:07.748Z,14.02
2022-08-26T04:45:17.429Z,14.07
2022-08-26T04:47:32.174Z,14.09
2022-08-26T04:49:38.528Z,14.14
2022-08-26T04:51:49.634Z,14.19
2022-08-26T04:53:56.907Z,14.28
2022-08-26T04:56:06.626Z,14.29
2022-08-26T04:58:14.992Z,14.35
2022-08-26T05:00:21.242Z,14.41
2022-08-26T05:02:30.623Z,14.45
2022-08-26T05:04:39.205Z,14.49
2022-08-26T05:06:45.780Z,14.5
2022-08-26T05:09:00.298Z,14.53
2022-08-26T05:11:11.963Z,14.56
2022-08-26T05:13:24.044Z,14.62
2022-08-26T05:15:29.961Z,14.72
2022-08-26T05:17:39.464Z,14.86
2022-08-26T05:19:47.954Z,15.02
2022-08-26T05:21:56.261Z,15.15
2022-08-26T05:24:05.549Z,15.29
2022-08-26T05:26:12.464Z,15.34
2022-08-26T05:28:28.963Z,15.48
2022-08-26T05:30:42.508Z,15.38
2022-08-26T05:32:54.833Z,15.46
2022-08-26T05:35:05.193Z,15.65
2022-08-26T05:37:18.192Z,15.81
2022-08-26T05:39:25.334Z,15.99
2022-08-26T05:41:36.375Z,16.24
2022-08-26T05:43:47.168Z,16.44
2022-08-26T05:45:56.460Z,16.68
2022-08-26T05:48:11.884Z,16.91
2022-08-26T05:50:20.411Z,17.2
2022-08-26T05:52:30.837Z,17.45
2022-08-26T05:54:37.556Z,17.7
2022-08-26T05:56:54.080Z,17.9
2022-08-26T05:59:03.535Z,18.12
2022-08-26T06:01:26.316Z,18.35
2022-08-26T06:03:38.601Z,18.5
2022-08-26T06:05:53.267Z,18.71
2022-08-26T06:07:59.957Z,18.83
2022-08-26T06:10:31.364Z,18.92
2022-08-26T06:12:47.797Z,18.99
2022-08-26T06:14:54.888Z,19.06
2022-08-26T06:17:02.194Z,19.14
2022-08-26T06:19:15.447Z,19.26
2022-08-26T06:21:24.399Z,19.37
2022-08-26T06:23:36.626Z,19.49
2022-08-26T06:25:46.125Z,19.56
2022-08-26T06:27:56.163Z,19.58
2022-08-26T06:30:05.257Z,19.63
2022-08-26T06:32:17.809Z,19.71
2022-08-26T06:34:26.572Z,19.78
2022-08-26T06:36:42.182Z,19.8
2022-08-26T06:38:54.638Z,19.82
2022-08-26T06:41:02.549Z,19.75
2022-08-26T06:43:13.782Z,19.66
2022-08-26T06:45:23.511Z,19.8
2022-08-26T06:47:30.889Z,19.88
2022-08-26T06:49:44.274Z,20.08
2022-08-26T06:51:53.281Z,20.27
2022-08-26T06:54:02.191Z,20.42
2022-08-26T06:56:09.482Z,20.63
2022-08-26T06:58:24.141Z,20.8
2022-08-26T07:01:34.558Z,20.98
2022-08-26T07:03:52.488Z,21.13
2022-08-26T07:06:07.641Z,21.28
2022-08-26T07:11:50.627Z,21.71
